Time;durP1;ratioP1;P1;durP2;ratioP2;P2;SDS_P1;SDS_P2;PMS_P1;PMS_P2;Temp;Humidity;BMP_temperature;BMP_pressure;BME280_temperature;BME280_humidity;BME280_pressure;Samples;Min_cycle;Max_cycle;Signal;HPM_P1;HPM_P2
2022/07/12 00:03:27;;;;;;;3.50;1.65;;;;;;;;;;10272254;28;20023;-56
2022/07/12 00:08:28;;;;;;;4.78;1.90;;;;;;;;;;10272858;28;20039;-55
2022/07/12 00:13:29;;;;;;;3.78;1.67;;;;;;;;;;10271776;28;20107;-57
2022/07/12 00:18:30;;;;;;;6.13;1.75;;;;;;;;;;10250796;28;20077;-57
2022/07/12 00:23:31;;;;;;;9.32;2.00;;;;;;;;;;10284003;28;20054;-57
2022/07/12 00:28:32;;;;;;;4.82;1.83;;;;;;;;;;10284892;28;20509;-57
2022/07/12 00:33:32;;;;;;;6.82;2.15;;;;;;;;;;10273666;28;20467;-56
2022/07/12 00:38:33;;;;;;;3.35;1.73;;;;;;;;;;10285268;28;20057;-52
2022/07/12 00:43:33;;;;;;;4.68;1.52;;;;;;;;;;10284135;28;20030;-49
2022/07/12 00:48:35;;;;;;;14.48;1.73;;;;;;;;;;10286615;28;20026;-48
2022/07/12 00:53:36;;;;;;;6.15;2.28;;;;;;;;;;10291432;28;20275;-49
2022/07/12 00:58:37;;;;;;;13.77;1.98;;;;;;;;;;10289380;28;20109;-49
2022/07/12 01:03:38;;;;;;;5.28;1.63;;;;;;;;;;10285088;28;20030;-47
2022/07/12 01:08:39;;;;;;;7.25;2.20;;;;;;;;;;10288414;28;20089;-49
2022/07/12 01:13:40;;;;;;;4.28;2.03;;;;;;;;;;10290733;28;20031;-49
2022/07/12 01:18:44;;;;;;;2.63;1.75;;;;;;;;;;10281947;28;20034;-49
2022/07/12 01:23:45;;;;;;;4.72;1.52;;;;;;;;;;10290818;28;20069;-51
2022/07/12 01:28:47;;;;;;;4.63;1.92;;;;;;;;;;10290054;28;20499;-50
2022/07/12 01:33:49;;;;;;;6.22;1.73;;;;;;;;;;10288474;28;20023;-59
2022/07/12 01:38:49;;;;;;;5.47;2.10;;;;;;;;;;10292024;28;20360;-49
2022/07/12 01:43:53;;;;;;;7.43;1.85;;;;;;;;;;10290986;28;20023;-48
2022/07/12 01:48:54;;;;;;;7.68;1.95;;;;;;;;;;10282609;28;20050;-57
2022/07/12 01:53:55;;;;;;;7.25;1.98;;;;;;;;;;10290507;28;20035;-57
2022/07/12 01:58:55;;;;;;;7.97;2.50;;;;;;;;;;10274412;28;20513;-54
2022/07/12 02:03:56;;;;;;;4.55;1.98;;;;;;;;;;10281855;28;20105;-54
2022/07/12 02:08:56;;;;;;;6.28;2.38;;;;;;;;;;10273185;28;20038;-52
2022/07/12 02:13:57;;;;;;;7.88;2.70;;;;;;;;;;10276717;28;20045;-51
2022/07/12 02:18:58;;;;;;;4.90;2.40;;;;;;;;;;10290016;28;20050;-54
2022/07/12 02:24:01;;;;;;;6.93;2.90;;;;;;;;;;10289149;28;20023;-52
2022/07/12 02:29:03;;;;;;;3.63;2.45;;;;;;;;;;10286919;28;20047;-55
2022/07/12 02:34:04;;;;;;;6.45;2.95;;;;;;;;;;10279020;28;20117;-50
2022/07/12 02:39:04;;;;;;;6.22;2.90;;;;;;;;;;10287290;28;20050;-54
2022/07/12 02:44:05;;;;;;;7.35;2.70;;;;;;;;;;10287784;28;20041;-54
2022/07/12 02:49:05;;;;;;;6.70;2.80;;;;;;;;;;10286518;28;20030;-50
2022/07/12 02:54:06;;;;;;;6.22;2.45;;;;;;;;;;10286769;28;20125;-50
2022/07/12 02:59:07;;;;;;;4.00;2.45;;;;;;;;;;10287361;28;20035;-50
2022/07/12 03:04:07;;;;;;;5.18;2.75;;;;;;;;;;10285755;28;20027;-53
2022/07/12 03:09:08;;;;;;;5.60;2.72;;;;;;;;;;10283696;28;20467;-56
2022/07/12 03:14:08;;;;;;;4.78;2.60;;;;;;;;;;10279723;28;20086;-53
2022/07/12 03:19:09;;;;;;;6.43;2.83;;;;;;;;;;10281622;28;20054;-63
2022/07/12 03:24:10;;;;;;;4.28;2.30;;;;;;;;;;10286280;28;20317;-67
2022/07/12 03:29:11;;;;;;;9.23;2.78;;;;;;;;;;10286390;28;20060;-67
2022/07/12 03:34:11;;;;;;;5.13;2.28;;;;;;;;;;10280905;28;20029;-66
2022/07/12 03:39:12;;;;;;;6.50;2.35;;;;;;;;;;10275884;28;20031;-65
2022/07/12 03:44:13;;;;;;;3.00;2.28;;;;;;;;;;10285173;28;20089;-65
2022/07/12 03:49:13;;;;;;;4.40;2.70;;;;;;;;;;10285293;28;20039;-64
2022/07/12 03:54:14;;;;;;;4.63;2.33;;;;;;;;;;10285094;28;20092;-65
2022/07/12 03:59:15;;;;;;;5.75;2.05;;;;;;;;;;10285456;28;20031;-66
2022/07/12 04:04:15;;;;;;;7.68;2.65;;;;;;;;;;10264418;28;20183;-66
2022/07/12 04:09:16;;;;;;;7.18;2.35;;;;;;;;;;10276183;28;20033;-67
2022/07/12 04:14:17;;;;;;;5.65;2.92;;;;;;;;;;10284949;28;20026;-65
2022/07/12 04:19:18;;;;;;;8.57;2.40;;;;;;;;;;10285097;28;20320;-67
2022/07/12 04:24:18;;;;;;;10.32;2.80;;;;;;;;;;10287685;28;20313;-66
2022/07/12 04:29:21;;;;;;;9.52;3.28;;;;;;;;;;10293470;28;20050;-67
2022/07/12 04:34:22;;;;;;;7.95;2.80;;;;;;;;;;10287580;28;20086;-66
2022/07/12 04:39:23;;;;;;;5.65;2.55;;;;;;;;;;10291565;28;20031;-66
2022/07/12 04:44:24;;;;;;;5.35;2.63;;;;;;;;;;10292046;28;20030;-65
2022/07/12 04:49:24;;;;;;;8.38;3.08;;;;;;;;;;10292238;28;20046;-61
2022/07/12 04:54:25;;;;;;;8.00;2.42;;;;;;;;;;10292540;28;20030;-61
2022/07/12 04:59:25;;;;;;;6.70;1.85;;;;;;;;;;10292145;28;20037;-61
2022/07/12 05:04:26;;;;;;;7.45;2.40;;;;;;;;;;10287875;28;20022;-59
2022/07/12 05:09:26;;;;;;;5.45;2.20;;;;;;;;;;10291308;28;20046;-59
2022/07/12 05:14:27;;;;;;;4.70;2.15;;;;;;;;;;10289172;28;20038;-60
2022/07/12 05:19:27;;;;;;;9.70;2.20;;;;;;;;;;10289314;28;20019;-60
2022/07/12 05:24:28;;;;;;;7.80;2.00;;;;;;;;;;10288472;28;20105;-60
2022/07/12 05:29:29;;;;;;;10.95;2.47;;;;;;;;;;10287643;28;20557;-61
2022/07/12 05:34:29;;;;;;;4.32;1.90;;;;;;;;;;10290194;28;20049;-61
2022/07/12 05:39:30;;;;;;;7.30;2.33;;;;;;;;;;10276555;28;20042;-62
2022/07/12 05:44:31;;;;;;;5.85;2.58;;;;;;;;;;10287222;28;20039;-65
2022/07/12 05:49:31;;;;;;;6.13;2.25;;;;;;;;;;10286341;28;20125;-64
2022/07/12 05:54:32;;;;;;;19.75;3.17;;;;;;;;;;10280866;28;20030;-63
2022/07/12 05:59:35;;;;;;;11.27;2.50;;;;;;;;;;10286599;28;20529;-62
2022/07/12 06:04:36;;;;;;;14.15;2.55;;;;;;;;;;10290177;28;20027;-61
2022/07/12 06:09:37;;;;;;;12.80;2.97;;;;;;;;;;10286464;28;20035;-60
2022/07/12 06:14:37;;;;;;;13.90;2.65;;;;;;;;;;10287211;28;20446;-60
2022/07/12 06:19:38;;;;;;;10.80;2.60;;;;;;;;;;10285347;28;20089;-60
2022/07/12 06:24:38;;;;;;;10.27;3.15;;;;;;;;;;10273878;28;20097;-59
2022/07/12 06:29:39;;;;;;;5.70;2.28;;;;;;;;;;10286964;28;20081;-59
2022/07/12 06:34:39;;;;;;;8.18;2.60;;;;;;;;;;10289198;28;20053;-59
2022/07/12 06:39:40;;;;;;;8.40;2.30;;;;;;;;;;10289509;28;20030;-59
2022/07/12 06:44:41;;;;;;;11.10;2.53;;;;;;;;;;10288524;28;20110;-58
2022/07/12 06:49:42;;;;;;;7.70;2.17;;;;;;;;;;10274745;28;20471;-59
2022/07/12 06:54:42;;;;;;;8.25;2.25;;;;;;;;;;10288063;28;20038;-59
2022/07/12 06:59:43;;;;;;;8.63;2.45;;;;;;;;;;10287988;28;20030;-59
2022/07/12 07:04:43;;;;;;;5.38;2.33;;;;;;;;;;10287428;28;20430;-59
2022/07/12 07:09:44;;;;;;;7.25;2.30;;;;;;;;;;10287340;28;20382;-60
2022/07/12 07:14:44;;;;;;;5.88;2.35;;;;;;;;;;10287259;28;20144;-59
2022/07/12 07:19:46;;;;;;;5.38;1.90;;;;;;;;;;10287720;28;20026;-58
2022/07/12 07:24:46;;;;;;;10.10;1.92;;;;;;;;;;10286770;28;20050;-60
2022/07/12 07:35:07;;;;;;;6.25;1.90;;;;;;;;;;10284622;28;20031;-59
2022/07/12 07:40:09;;;;;;;3.67;1.88;;;;;;;;;;10283467;28;20109;-59
2022/07/12 07:45:10;;;;;;;5.78;1.83;;;;;;;;;;10278521;28;20050;-60
2022/07/12 07:50:11;;;;;;;2.55;1.38;;;;;;;;;;10284630;28;20023;-60
2022/07/12 07:55:11;;;;;;;4.00;2.00;;;;;;;;;;10264478;28;20502;-59
2022/07/12 08:00:14;;;;;;;4.00;1.60;;;;;;;;;;10285360;28;20030;-59
2022/07/12 08:05:14;;;;;;;3.03;1.67;;;;;;;;;;10265744;28;20053;-59
2022/07/12 08:10:15;;;;;;;2.97;1.92;;;;;;;;;;10285347;28;20045;-60
2022/07/12 08:15:15;;;;;;;2.72;1.48;;;;;;;;;;10285223;28;20081;-60
2022/07/12 08:20:16;;;;;;;7.88;1.60;;;;;;;;;;10285297;28;20031;-59
2022/07/12 08:25:17;;;;;;;6.43;1.40;;;;;;;;;;10283661;28;20050;-60
2022/07/12 08:30:17;;;;;;;6.75;1.95;;;;;;;;;;10285770;28;20474;-60
2022/07/12 08:35:18;;;;;;;6.65;2.05;;;;;;;;;;10274080;28;20026;-60
2022/07/12 08:40:19;;;;;;;4.03;1.52;;;;;;;;;;10261449;28;20027;-60
2022/07/12 08:45:19;;;;;;;8.68;2.08;;;;;;;;;;10283584;28;20027;-60
2022/07/12 08:50:23;;;;;;;7.50;1.80;;;;;;;;;;10285082;28;20041;-59
2022/07/12 08:55:28;;;;;;;4.47;2.22;;;;;;;;;;10284926;28;20106;-60
2022/07/12 09:00:30;;;;;;;6.85;1.77;;;;;;;;;;10272981;28;20019;-60
2022/07/12 09:05:32;;;;;;;4.53;1.65;;;;;;;;;;10284330;28;20027;-60
2022/07/12 09:10:50;;;;;;;2.88;1.55;;;;;;;;;;10287502;28;20497;-59
2022/07/12 09:15:51;;;;;;;4.50;1.73;;;;;;;;;;10282509;28;20022;-60
2022/07/12 09:20:52;;;;;;;3.90;1.90;;;;;;;;;;10291679;28;20399;-59
2022/07/12 09:25:53;;;;;;;3.85;1.52;;;;;;;;;;10290033;28;20054;-59
2022/07/12 09:30:54;;;;;;;4.72;1.88;;;;;;;;;;10291434;28;20479;-59
2022/07/12 09:36:15;;;;;;;4.20;1.80;;;;;;;;;;10290983;28;20045;-59
2022/07/12 09:41:21;;;;;;;3.47;1.60;;;;;;;;;;10280122;28;20062;-59
2022/07/12 09:46:21;;;;;;;6.03;1.73;;;;;;;;;;10290500;28;20038;-59
2022/07/12 09:51:23;;;;;;;2.70;1.50;;;;;;;;;;10280922;28;20046;-60
2022/07/12 09:56:26;;;;;;;2.53;1.33;;;;;;;;;;10289824;28;20031;-60
2022/07/12 10:01:30;;;;;;;5.88;1.65;;;;;;;;;;10289276;28;20383;-59
2022/07/12 10:06:31;;;;;;;3.28;2.00;;;;;;;;;;10287816;28;20125;-59
2022/07/12 10:11:32;;;;;;;4.03;1.90;;;;;;;;;;10289767;28;20083;-60
2022/07/12 10:16:35;;;;;;;2.45;1.38;;;;;;;;;;10286276;28;20082;-60
2022/07/12 10:21:39;;;;;;;5.32;1.50;;;;;;;;;;10287808;28;20023;-59
2022/07/12 10:26:40;;;;;;;2.47;1.60;;;;;;;;;;10287252;28;20054;-59
2022/07/12 10:31:41;;;;;;;1.75;1.45;;;;;;;;;;10286926;28;20410;-60
2022/07/12 10:36:54;;;;;;;3.67;1.60;;;;;;;;;;10286146;28;20499;-60
2022/07/12 10:42:05;;;;;;;2.08;1.40;;;;;;;;;;10281625;28;20438;-59
2022/07/12 10:47:08;;;;;;;1.38;1.20;;;;;;;;;;10276790;28;20041;-59
2022/07/12 10:52:11;;;;;;;2.63;1.40;;;;;;;;;;10261611;28;20106;-60
2022/07/12 10:57:12;;;;;;;1.63;1.40;;;;;;;;;;10280335;28;20085;-59
2022/07/12 11:02:13;;;;;;;1.23;1.13;;;;;;;;;;10286006;28;20042;-60
2022/07/12 11:07:18;;;;;;;2.88;1.60;;;;;;;;;;10287055;28;20022;-60
2022/07/12 11:12:19;;;;;;;5.03;1.63;;;;;;;;;;10287897;28;20030;-59
2022/07/12 11:17:31;;;;;;;1.92;1.40;;;;;;;;;;10287798;28;20475;-59
2022/07/12 11:22:33;;;;;;;3.20;1.50;;;;;;;;;;10287433;28;20030;-59
2022/07/12 11:27:35;;;;;;;4.82;1.70;;;;;;;;;;10287242;28;20053;-59
2022/07/12 11:32:42;;;;;;;5.85;1.48;;;;;;;;;;10283999;28;20079;-59
2022/07/12 11:37:56;;;;;;;5.88;1.33;;;;;;;;;;10286886;28;20035;-59
2022/07/12 11:43:00;;;;;;;1.90;1.48;;;;;;;;;;10274835;28;20039;-59
2022/07/12 11:48:03;;;;;;;1.48;1.35;;;;;;;;;;10286289;28;20023;-59
2022/07/12 11:53:04;;;;;;;2.10;1.63;;;;;;;;;;10285225;28;20274;-59
2022/07/12 11:58:05;;;;;;;3.30;1.40;;;;;;;;;;10284908;28;20255;-58
2022/07/12 12:03:05;;;;;;;7.43;1.40;;;;;;;;;;10277235;28;20034;-59
2022/07/12 12:08:07;;;;;;;3.40;1.63;;;;;;;;;;10272222;28;20035;-59
2022/07/12 12:13:16;;;;;;;7.10;1.88;;;;;;;;;;10284714;28;20027;-59
2022/07/12 12:18:27;;;;;;;5.70;1.50;;;;;;;;;;10278845;28;20033;-60
2022/07/12 12:23:28;;;;;;;4.03;1.50;;;;;;;;;;10283585;28;20039;-59
2022/07/12 12:29:07;;;;;;;8.27;1.60;;;;;;;;;;10275224;28;20046;-59
2022/07/12 12:34:14;;;;;;;7.47;2.28;;;;;;;;;;10281423;28;20066;-59
2022/07/12 12:39:30;;;;;;;1.67;1.47;;;;;;;;;;10264313;28;20097;-60
2022/07/12 12:44:33;;;;;;;3.50;1.75;;;;;;;;;;10275909;28;20368;-60
2022/07/12 12:49:51;;;;;;;6.28;1.50;;;;;;;;;;10291295;28;20514;-59
2022/07/12 12:54:52;;;;;;;4.53;1.70;;;;;;;;;;10282350;28;20078;-59
2022/07/12 12:59:55;;;;;;;2.47;1.50;;;;;;;;;;10284085;28;20031;-60
2022/07/12 13:04:55;;;;;;;2.47;1.73;;;;;;;;;;10289917;28;20093;-60
2022/07/12 13:09:56;;;;;;;4.28;1.60;;;;;;;;;;10290398;28;20109;-59
2022/07/12 13:14:57;;;;;;;5.63;2.28;;;;;;;;;;10285185;28;20126;-60
2022/07/12 13:19:58;;;;;;;4.05;1.80;;;;;;;;;;10284947;28;20034;-60
2022/07/12 13:24:58;;;;;;;4.78;2.00;;;;;;;;;;10274051;28;20395;-59
2022/07/12 13:29:59;;;;;;;3.42;2.03;;;;;;;;;;10281095;28;20496;-60
2022/07/12 13:35:01;;;;;;;5.57;2.08;;;;;;;;;;10290475;28;20479;-60
2022/07/12 13:40:11;;;;;;;4.75;1.98;;;;;;;;;;10287964;28;20029;-59
2022/07/12 13:45:18;;;;;;;4.97;2.00;;;;;;;;;;10290896;28;20093;-59
2022/07/12 13:50:22;;;;;;;3.95;1.70;;;;;;;;;;10291277;28;20041;-60
2022/07/12 13:55:23;;;;;;;5.80;2.08;;;;;;;;;;10289246;28;20031;-59
2022/07/12 14:00:24;;;;;;;4.88;2.15;;;;;;;;;;10286817;28;20336;-60
2022/07/12 14:05:24;;;;;;;4.32;1.92;;;;;;;;;;10266465;28;20042;-60
2022/07/12 14:10:26;;;;;;;3.03;1.65;;;;;;;;;;10284037;28;20039;-60
2022/07/12 14:15:39;;;;;;;3.55;2.05;;;;;;;;;;10288969;28;20031;-59
2022/07/12 14:20:40;;;;;;;3.13;2.15;;;;;;;;;;10290202;28;20271;-59
2022/07/12 14:25:41;;;;;;;7.18;2.13;;;;;;;;;;10270604;28;20313;-59
2022/07/12 14:30:41;;;;;;;3.08;1.73;;;;;;;;;;10277598;28;20428;-59
2022/07/12 14:35:42;;;;;;;4.43;1.88;;;;;;;;;;10287434;28;20085;-59
2022/07/12 14:40:42;;;;;;;8.30;2.10;;;;;;;;;;10279130;28;20023;-59
2022/07/12 14:45:43;;;;;;;3.53;1.80;;;;;;;;;;10289233;28;20550;-59
2022/07/12 14:50:43;;;;;;;3.58;1.60;;;;;;;;;;10278069;28;20501;-59
2022/07/12 14:55:44;;;;;;;6.05;1.85;;;;;;;;;;10288668;28;20475;-59
2022/07/12 15:00:45;;;;;;;6.00;2.00;;;;;;;;;;10288785;28;20018;-59
2022/07/12 15:05:46;;;;;;;6.25;2.22;;;;;;;;;;10268418;28;20101;-60
2022/07/12 15:10:47;;;;;;;3.65;1.95;;;;;;;;;;10287464;28;20092;-59
2022/07/12 15:15:47;;;;;;;3.97;1.48;;;;;;;;;;10275294;28;20566;-60
2022/07/12 15:20:49;;;;;;;3.22;1.95;;;;;;;;;;10272697;28;20414;-59
2022/07/12 15:25:49;;;;;;;5.20;1.90;;;;;;;;;;10261347;28;20057;-60
2022/07/12 15:30:50;;;;;;;5.55;1.80;;;;;;;;;;10268989;28;20027;-59
2022/07/12 15:35:51;;;;;;;3.90;1.60;;;;;;;;;;10256440;28;20038;-60
2022/07/12 15:40:52;;;;;;;3.83;2.05;;;;;;;;;;10253546;28;20449;-59
2022/07/12 15:45:53;;;;;;;2.80;1.65;;;;;;;;;;10271279;28;20167;-60
2022/07/12 15:50:53;;;;;;;5.25;1.80;;;;;;;;;;10266073;28;20030;-59
2022/07/12 15:55:59;;;;;;;5.03;1.83;;;;;;;;;;10286466;28;20035;-60
2022/07/12 16:01:00;;;;;;;4.28;2.05;;;;;;;;;;10286267;28;20038;-59
2022/07/12 16:06:03;;;;;;;2.72;1.50;;;;;;;;;;10272997;28;20019;-60
2022/07/12 16:11:04;;;;;;;2.33;1.52;;;;;;;;;;10283432;28;20034;-60
2022/07/12 16:16:05;;;;;;;3.08;1.65;;;;;;;;;;10279860;28;20509;-60
2022/07/12 16:21:05;;;;;;;4.22;1.77;;;;;;;;;;10284408;28;20403;-60
2022/07/12 16:26:06;;;;;;;3.55;1.80;;;;;;;;;;10281245;28;20066;-59
2022/07/12 16:31:07;;;;;;;2.63;1.63;;;;;;;;;;10282440;28;20074;-60
2022/07/12 16:36:08;;;;;;;3.40;1.70;;;;;;;;;;10284273;28;20545;-59
2022/07/12 16:41:08;;;;;;;6.35;2.28;;;;;;;;;;10276093;28;20026;-59
2022/07/12 16:46:09;;;;;;;4.90;1.40;;;;;;;;;;10283716;28;20471;-59
2022/07/12 16:51:22;;;;;;;4.00;1.77;;;;;;;;;;10279740;28;20039;-59
2022/07/12 16:56:31;;;;;;;2.67;1.42;;;;;;;;;;10284213;28;20035;-59
2022/07/12 17:01:31;;;;;;;5.40;1.75;;;;;;;;;;10284878;28;20062;-59
2022/07/12 17:06:33;;;;;;;4.15;1.38;;;;;;;;;;10273369;28;20051;-59
2022/07/12 17:11:34;;;;;;;7.38;1.60;;;;;;;;;;10279648;28;20110;-58
2022/07/12 17:16:34;;;;;;;5.30;1.60;;;;;;;;;;10274564;28;20375;-59
2022/07/12 17:21:36;;;;;;;3.33;1.85;;;;;;;;;;10280400;28;20376;-60
2022/07/12 17:26:37;;;;;;;6.18;1.38;;;;;;;;;;10274918;28;20093;-60
2022/07/12 17:31:38;;;;;;;2.53;1.63;;;;;;;;;;10282123;28;20037;-60
2022/07/12 17:36:39;;;;;;;4.05;1.60;;;;;;;;;;10303636;28;20031;-60
2022/07/12 17:41:41;;;;;;;3.22;1.50;;;;;;;;;;10289543;28;20390;-59
2022/07/12 17:46:41;;;;;;;1.52;1.35;;;;;;;;;;10289910;28;20051;-60
2022/07/12 17:51:42;;;;;;;4.03;1.50;;;;;;;;;;10290773;28;20093;-60
2022/07/12 17:56:43;;;;;;;2.25;1.33;;;;;;;;;;10275136;28;20026;-60
2022/07/12 18:01:44;;;;;;;3.00;1.30;;;;;;;;;;10288546;28;20038;-60
2022/07/12 18:06:45;;;;;;;2.15;1.50;;;;;;;;;;10289204;28;20023;-59
2022/07/12 18:22:30;;;;;;;3.70;1.50;;;;;;;;;;10267898;28;20077;-58
2022/07/12 18:27:30;;;;;;;5.05;1.48;;;;;;;;;;10279913;28;20109;-59
2022/07/12 18:32:31;;;;;;;5.10;1.70;;;;;;;;;;10272936;28;20097;-59
2022/07/12 18:37:31;;;;;;;5.03;1.60;;;;;;;;;;10287833;28;20045;-60
2022/07/12 18:42:33;;;;;;;8.82;2.75;;;;;;;;;;10288569;28;20424;-59
2022/07/12 18:47:34;;;;;;;5.80;2.20;;;;;;;;;;10287865;28;20023;-59
2022/07/12 18:52:36;;;;;;;7.72;1.90;;;;;;;;;;10288315;28;20041;-59
2022/07/12 18:57:36;;;;;;;7.88;1.67;;;;;;;;;;10287059;28;20102;-59
2022/07/12 19:02:37;;;;;;;8.00;2.13;;;;;;;;;;10288070;28;20026;-60
2022/07/12 19:07:38;;;;;;;7.82;1.40;;;;;;;;;;10285114;28;20034;-60
2022/07/12 19:12:38;;;;;;;2.75;1.50;;;;;;;;;;10287522;28;20030;-60
2022/07/12 19:17:39;;;;;;;5.68;1.60;;;;;;;;;;10287469;28;20030;-60
2022/07/12 19:22:40;;;;;;;4.07;1.80;;;;;;;;;;10286968;28;20027;-59
2022/07/12 19:27:40;;;;;;;1.80;1.35;;;;;;;;;;10279269;28;20070;-59
2022/07/12 19:32:41;;;;;;;4.32;1.60;;;;;;;;;;10286725;28;20030;-60
2022/07/12 19:37:42;;;;;;;1.77;1.20;;;;;;;;;;10285102;28;20031;-59
2022/07/12 19:42:42;;;;;;;2.65;1.38;;;;;;;;;;10286440;28;20035;-60
2022/07/12 19:47:43;;;;;;;12.73;1.67;;;;;;;;;;10286268;28;20034;-59
2022/07/12 19:52:45;;;;;;;3.83;1.63;;;;;;;;;;10284806;28;20027;-60
2022/07/12 19:57:45;;;;;;;4.25;1.77;;;;;;;;;;10286715;28;20031;-59
2022/07/12 20:02:47;;;;;;;2.22;1.40;;;;;;;;;;10285865;28;20023;-60
2022/07/12 20:07:48;;;;;;;2.95;1.67;;;;;;;;;;10285762;28;20035;-59
2022/07/12 20:12:49;;;;;;;2.53;1.35;;;;;;;;;;10283630;28;20418;-59
2022/07/12 20:17:50;;;;;;;3.00;1.73;;;;;;;;;;10278675;28;20027;-60
2022/07/12 20:22:51;;;;;;;3.15;1.58;;;;;;;;;;10282964;28;20030;-59
2022/07/12 20:27:51;;;;;;;1.55;1.35;;;;;;;;;;10276057;28;20414;-60
2022/07/12 20:38:12;;;;;;;3.50;1.65;;;;;;;;;;10283225;28;20479;-59
2022/07/12 20:43:13;;;;;;;3.95;1.98;;;;;;;;;;10281723;28;20019;-59
2022/07/12 20:48:14;;;;;;;4.85;1.88;;;;;;;;;;10283806;28;20427;-60
2022/07/12 20:53:14;;;;;;;3.47;1.73;;;;;;;;;;10279537;28;20035;-59
2022/07/12 20:58:15;;;;;;;3.92;1.70;;;;;;;;;;10268304;28;20035;-60
2022/07/12 21:03:16;;;;;;;2.85;1.50;;;;;;;;;;10284885;28;20057;-59
2022/07/12 21:08:17;;;;;;;3.30;1.50;;;;;;;;;;10290541;28;20038;-59
2022/07/12 21:13:19;;;;;;;4.82;1.77;;;;;;;;;;10292104;28;20026;-59
2022/07/12 21:18:20;;;;;;;3.47;2.20;;;;;;;;;;10273043;28;20027;-59
2022/07/12 21:23:20;;;;;;;6.35;1.88;;;;;;;;;;10257573;28;20027;-59
2022/07/12 21:28:21;;;;;;;5.25;1.85;;;;;;;;;;10259624;28;20403;-59
2022/07/12 21:33:22;;;;;;;2.67;1.90;;;;;;;;;;10283190;28;20294;-59
2022/07/12 21:38:22;;;;;;;6.45;1.63;;;;;;;;;;10287064;28;20672;-59
2022/07/12 21:43:23;;;;;;;5.90;1.70;;;;;;;;;;10290442;28;20034;-64
2022/07/12 21:48:24;;;;;;;5.28;2.00;;;;;;;;;;10290164;28;20029;-68
2022/07/12 21:53:24;;;;;;;9.25;2.42;;;;;;;;;;10292564;28;20097;-67
2022/07/12 21:58:25;;;;;;;5.68;1.70;;;;;;;;;;10289863;28;20027;-65
2022/07/12 22:03:25;;;;;;;10.20;2.10;;;;;;;;;;10287028;28;20135;-68
2022/07/12 22:08:26;;;;;;;6.50;2.22;;;;;;;;;;10291470;28;20023;-63
2022/07/12 22:13:27;;;;;;;4.90;2.30;;;;;;;;;;10288802;28;20057;-65
2022/07/12 22:18:27;;;;;;;4.82;2.30;;;;;;;;;;10291747;28;20478;-64
2022/07/12 22:23:28;;;;;;;9.63;2.95;;;;;;;;;;10285636;28;20406;-65
2022/07/12 22:28:29;;;;;;;9.35;2.95;;;;;;;;;;10281568;28;20039;-61
2022/07/12 22:33:29;;;;;;;5.90;3.03;;;;;;;;;;10285095;28;20174;-63
2022/07/12 22:38:30;;;;;;;6.68;3.80;;;;;;;;;;10288697;28;20255;-61
2022/07/12 22:43:31;;;;;;;9.32;3.45;;;;;;;;;;10288767;28;20023;-63
2022/07/12 22:48:32;;;;;;;8.23;3.38;;;;;;;;;;10288397;28;20503;-64
2022/07/12 22:53:33;;;;;;;9.35;2.80;;;;;;;;;;10283627;28;20491;-65
2022/07/12 22:58:33;;;;;;;13.32;3.00;;;;;;;;;;10287383;28;20026;-65
2022/07/12 23:03:34;;;;;;;4.65;2.55;;;;;;;;;;10287032;28;20041;-66
2022/07/12 23:08:34;;;;;;;7.40;2.50;;;;;;;;;;10286006;28;20290;-65
2022/07/12 23:13:35;;;;;;;6.82;2.22;;;;;;;;;;10302791;28;20035;-64
2022/07/12 23:18:37;;;;;;;5.70;2.20;;;;;;;;;;10285395;28;20077;-67
2022/07/12 23:23:37;;;;;;;6.15;2.65;;;;;;;;;;10283162;28;20019;-65
2022/07/12 23:28:38;;;;;;;8.73;2.40;;;;;;;;;;10277511;28;20510;-66
2022/07/12 23:33:38;;;;;;;6.47;2.38;;;;;;;;;;10286843;28;20430;-63
2022/07/12 23:38:39;;;;;;;9.40;2.20;;;;;;;;;;10283022;28;20104;-66
2022/07/12 23:43:40;;;;;;;5.20;2.15;;;;;;;;;;10286858;28;20491;-66
2022/07/12 23:48:40;;;;;;;7.70;2.20;;;;;;;;;;10286961;28;20035;-66
2022/07/12 23:53:41;;;;;;;6.30;2.60;;;;;;;;;;10285299;28;20030;-67
2022/07/12 23:58:41;;;;;;;5.85;2.10;;;;;;;;;;10283761;28;20027;-67
